Athens, New York
Current Conditions -  °F | °C
As of 8:54 PM on Wednesday 22 Oct 2014 (Local Time) from KPSF Reporting Station
Light Rain Light Rain  
Wind Chill: 42°   Ceiling: 1600
Heat Index: 47°   Visibility: 10mi
Dew Point: 45°   Wind: 12mph
Humidity: 93%   Direction: 30°NNE
Pressure: 29.89"   Gusts: 18mph
Location:  42.26°N, 73.81°W
Report Text: KPSF 230054Z AUTO 03010G16KT 10SM -RA BKN016 OVC022 08/07 A2989 RMK AO2 RAB2356 SLP117 P0000 T00830072
Loading
Personal Weather Stations






























Interactive Weather Map
Tropical Storm Tracking
New forecast layout! Learn more

10-Day Weather Forecast

Advertisements
Track Severe Weather on mobile